Time;durP1;ratioP1;P1;durP2;ratioP2;P2;SDS_P1;SDS_P2;PMS_P1;PMS_P2;Temp;Humidity;BMP_temperature;BMP_pressure;BME280_temperature;BME280_humidity;BME280_pressure;Samples;Min_cycle;Max_cycle;Signal;HPM_P1;HPM_P2
2022/08/14 00:02:06;;;;;;;;;;;;;;;21.81;100.00;100359.78;10022838;29;20260;-64
2022/08/14 00:07:10;;;;;;;;;;;;;;;21.74;100.00;100349.50;10022838;29;19932;-65
2022/08/14 00:12:17;;;;;;;;;;;;;;;21.72;100.00;100340.81;10027639;29;20353;-66
2022/08/14 00:17:26;;;;;;;;;;;;;;;21.70;100.00;100333.91;10029574;29;19928;-67
2022/08/14 00:22:29;;;;;;;;;;;;;;;21.67;100.00;100332.28;10029137;29;20081;-69
2022/08/14 00:27:53;;;;;;;;;;;;;;;21.67;100.00;100324.34;10029265;29;19928;-67
2022/08/14 00:32:56;;;;;;;;;;;;;;;21.67;100.00;100318.25;10028862;29;20365;-66
2022/08/14 00:38:01;;;;;;;;;;;;;;;21.69;100.00;100322.47;10028835;29;19996;-66
2022/08/14 00:43:11;;;;;;;;;;;;;;;21.65;100.00;100320.97;10028235;29;19933;-69
2022/08/14 00:48:17;;;;;;;;;;;;;;;21.71;100.00;100317.09;10028511;29;19935;-67
2022/08/14 00:53:39;;;;;;;;;;;;;;;21.70;100.00;100311.00;10028436;29;19929;-67
2022/08/14 00:58:47;;;;;;;;;;;;;;;21.74;100.00;100311.66;10028228;29;20259;-64
2022/08/14 01:03:52;;;;;;;;;;;;;;;21.72;100.00;100311.75;10027907;29;19933;-67
2022/08/14 01:08:55;;;;;;;;;;;;;;;21.72;100.00;100317.03;10027654;29;19928;-65
2022/08/14 01:14:03;;;;;;;;;;;;;;;21.71;100.00;100295.97;10027247;29;19928;-65
2022/08/14 01:24:44;;;;;;;;;;;;;;;21.76;100.00;100289.50;10026586;29;19939;-64
2022/08/14 01:29:54;;;;;;;;;;;;;;;21.76;100.00;100291.31;10027177;29;19936;-68
2022/08/14 01:35:06;;;;;;;;;;;;;;;21.70;100.00;100284.56;10026737;29;20031;-68
2022/08/14 01:40:31;;;;;;;;;;;;;;;21.65;100.00;100298.97;10026645;29;20018;-67
2022/08/14 01:45:43;;;;;;;;;;;;;;;21.58;100.00;100297.59;10026422;29;19940;-66
2022/08/14 01:51:07;;;;;;;;;;;;;;;21.58;100.00;100300.25;10026050;29;20239;-67
2022/08/14 01:56:34;;;;;;;;;;;;;;;21.57;100.00;100311.78;10026023;29;19928;-64
2022/08/14 02:01:42;;;;;;;;;;;;;;;21.53;100.00;100316.38;10025832;29;19995;-70
2022/08/14 02:07:01;;;;;;;;;;;;;;;21.52;100.00;100319.06;10025819;29;20056;-73
2022/08/14 02:12:09;;;;;;;;;;;;;;;21.52;100.00;100316.44;10025409;29;19937;-65
2022/08/14 02:17:22;;;;;;;;;;;;;;;21.54;100.00;100306.63;10025067;29;20027;-66
2022/08/14 02:22:25;;;;;;;;;;;;;;;21.54;100.00;100306.63;10025009;29;19933;-67
2022/08/14 02:27:40;;;;;;;;;;;;;;;21.52;100.00;100293.50;10025018;29;19940;-67
2022/08/14 02:33:04;;;;;;;;;;;;;;;21.55;100.00;100285.41;10023863;29;19929;-68
2022/08/14 02:38:07;;;;;;;;;;;;;;;21.50;100.00;100287.47;10024675;29;19928;-71
2022/08/14 02:43:26;;;;;;;;;;;;;;;21.52;100.00;100285.59;10024179;29;19928;-69
2022/08/14 02:48:39;;;;;;;;;;;;;;;21.49;100.00;100280.50;10024409;29;19929;-67
2022/08/14 02:54:03;;;;;;;;;;;;;;;21.48;100.00;100273.50;10024280;29;19935;-71
2022/08/14 02:59:09;;;;;;;;;;;;;;;21.43;100.00;100278.16;10024030;29;19929;-69
2022/08/14 03:04:12;;;;;;;;;;;;;;;21.39;100.00;100274.03;10023964;29;20363;-68
2022/08/14 03:09:15;;;;;;;;;;;;;;;21.35;100.00;100264.56;10023866;29;19954;-68
2022/08/14 03:14:22;;;;;;;;;;;;;;;21.34;100.00;100265.50;10023690;29;19928;-70
2022/08/14 03:19:25;;;;;;;;;;;;;;;21.29;100.00;100258.78;10023569;29;19929;-69
2022/08/14 03:24:28;;;;;;;;;;;;;;;21.31;100.00;100256.91;10023338;29;19928;-71
2022/08/14 03:29:33;;;;;;;;;;;;;;;21.32;100.00;100248.03;10023368;29;19942;-69
2022/08/14 03:34:37;;;;;;;;;;;;;;;21.32;100.00;100251.53;10023330;29;19992;-70
2022/08/14 03:39:57;;;;;;;;;;;;;;;21.32;100.00;100251.53;10023315;29;19938;-69
2022/08/14 03:45:05;;;;;;;;;;;;;;;21.33;100.00;100247.09;10025166;29;19943;-66
2022/08/14 03:50:28;;;;;;;;;;;;;;;21.29;100.00;100249.06;10030603;29;19928;-68
2022/08/14 03:55:35;;;;;;;;;;;;;;;21.30;100.00;100250.75;10030178;29;19928;-70
2022/08/14 04:00:44;;;;;;;;;;;;;;;21.33;100.00;100241.81;10029499;29;20392;-70
2022/08/14 04:05:48;;;;;;;;;;;;;;;21.34;100.00;100246.16;9714716;29;9999740;-69
2022/08/14 04:10:51;;;;;;;;;;;;;;;21.37;100.00;100254.75;10065246;29;19943;-70
2022/08/14 04:15:56;;;;;;;;;;;;;;;21.41;100.00;100255.44;10064661;29;19928;-69
2022/08/14 04:21:06;;;;;;;;;;;;;;;21.41;100.00;100260.72;10064586;29;19928;-67
2022/08/14 04:26:13;;;;;;;;;;;;;;;21.37;100.00;100251.25;10064726;29;19983;-68
2022/08/14 04:31:37;;;;;;;;;;;;;;;21.40;100.00;100269.56;10063989;29;20374;-69
2022/08/14 04:48:12;;;;;;;;;;;;;;;21.53;100.00;100281.16;10063491;29;19939;-71
2022/08/14 04:53:36;;;;;;;;;;;;;;;21.55;100.00;100282.78;10063490;29;20026;-68
2022/08/14 04:58:46;;;;;;;;;;;;;;;21.57;100.00;100278.25;10062059;29;20374;-71
2022/08/14 05:03:51;;;;;;;;;;;;;;;21.62;100.00;100280.66;10062895;29;19928;-68
2022/08/14 05:08:56;;;;;;;;;;;;;;;21.62;100.00;100276.19;10062741;29;19928;-72
2022/08/14 05:14:02;;;;;;;;;;;;;;;21.66;100.00;100272.47;10062521;29;19939;-71
2022/08/14 05:19:27;;;;;;;;;;;;;;;21.73;100.00;100272.97;10062493;29;19963;-70
2022/08/14 05:24:31;;;;;;;;;;;;;;;21.72;100.00;100269.47;10062437;29;19928;-69
2022/08/14 05:29:35;;;;;;;;;;;;;;;21.69;100.00;100269.63;10061913;29;19936;-70
2022/08/14 05:34:39;;;;;;;;;;;;;;;21.72;100.00;100271.25;10061666;29;19929;-71
2022/08/14 05:39:47;;;;;;;;;;;;;;;21.69;100.00;100277.56;10061630;29;20023;-70
2022/08/14 05:44:50;;;;;;;;;;;;;;;21.69;100.00;100268.81;10061068;29;19939;-68
2022/08/14 05:49:58;;;;;;;;;;;;;;;21.81;100.00;100272.56;10079079;29;20011;-71
2022/08/14 05:55:02;;;;;;;;;;;;;;;21.83;100.00;100260.13;10064172;29;19928;-70
2022/08/14 06:00:05;;;;;;;;;;;;;;;21.88;100.00;100264.19;10064233;29;19939;-71
2022/08/14 06:05:12;;;;;;;;;;;;;;;21.96;100.00;100254.03;10063928;29;19928;-67
2022/08/14 06:10:17;;;;;;;;;;;;;;;22.00;100.00;100257.34;10063574;29;19928;-70
2022/08/14 06:15:20;;;;;;;;;;;;;;;22.07;100.00;100262.16;10063469;29;19927;-69
2022/08/14 06:20:30;;;;;;;;;;;;;;;22.14;100.00;100252.94;10063499;29;19943;-69
2022/08/14 06:25:36;;;;;;;;;;;;;;;22.22;100.00;100240.13;10063228;29;19938;-69
2022/08/14 06:30:39;;;;;;;;;;;;;;;22.26;100.00;100244.28;10063159;29;19934;-71
2022/08/14 06:35:50;;;;;;;;;;;;;;;22.36;100.00;100250.75;10062691;29;19938;-69
2022/08/14 06:40:53;;;;;;;;;;;;;;;22.46;100.00;100257.16;10062601;29;19928;-70
2022/08/14 06:45:56;;;;;;;;;;;;;;;22.47;100.00;100256.22;10062845;29;19935;-69
2022/08/14 06:51:03;;;;;;;;;;;;;;;22.51;100.00;100257.75;10062380;29;19950;-68
2022/08/14 06:56:07;;;;;;;;;;;;;;;22.76;100.00;100255.31;10062540;29;19938;-72
2022/08/14 07:06:34;;;;;;;;;;;;;;;22.93;100.00;100252.47;10061861;29;19987;-72
2022/08/14 07:11:49;;;;;;;;;;;;;;;22.92;100.00;100252.56;10061863;29;19935;-73
2022/08/14 07:16:52;;;;;;;;;;;;;;;22.89;100.00;100250.97;10061714;29;19985;-75
2022/08/14 07:21:56;;;;;;;;;;;;;;;22.96;100.00;100251.44;10067027;29;19929;-72
2022/08/14 07:26:59;;;;;;;;;;;;;;;23.02;100.00;100260.81;10069808;29;19964;-74
2022/08/14 07:32:03;;;;;;;;;;;;;;;23.08;100.00;100255.09;10069465;29;19928;-73
2022/08/14 07:37:07;;;;;;;;;;;;;;;23.15;100.00;100253.78;10069149;29;19947;-72
2022/08/14 07:42:11;;;;;;;;;;;;;;;23.29;100.00;100245.84;10068748;29;19935;-75
2022/08/14 07:47:15;;;;;;;;;;;;;;;23.36;100.00;100240.06;9730463;29;10000110;-73
2022/08/14 07:52:20;;;;;;;;;;;;;;;23.47;100.00;100242.03;10065989;29;19992;-75
2022/08/14 07:57:32;;;;;;;;;;;;;;;23.49;100.00;100235.66;10065329;29;20346;-75
2022/08/14 08:02:38;;;;;;;;;;;;;;;23.55;100.00;100234.41;10065204;29;19938;-76
2022/08/14 08:07:44;;;;;;;;;;;;;;;23.66;100.00;100234.56;10065045;29;19938;-73
2022/08/14 08:12:48;;;;;;;;;;;;;;;23.78;100.00;100237.25;10065140;29;19928;-75
2022/08/14 08:17:51;;;;;;;;;;;;;;;23.84;100.00;100243.94;10064935;29;19928;-74
2022/08/14 08:23:05;;;;;;;;;;;;;;;23.96;100.00;100238.69;10064486;29;19939;-75
2022/08/14 08:28:09;;;;;;;;;;;;;;;23.98;100.00;100238.59;10064162;29;20342;-75
2022/08/14 08:33:27;;;;;;;;;;;;;;;23.95;100.00;100239.63;10063794;29;20020;-75
2022/08/14 08:38:40;;;;;;;;;;;;;;;24.00;100.00;100240.19;10063948;29;19932;-72
2022/08/14 08:44:04;;;;;;;;;;;;;;;24.28;100.00;100236.53;10063493;29;19928;-74
2022/08/14 08:49:34;;;;;;;;;;;;;;;24.34;100.00;100232.63;10063633;29;19932;-73
2022/08/14 08:54:41;;;;;;;;;;;;;;;24.56;100.00;100222.19;10063182;29;19928;-73
2022/08/14 08:59:45;;;;;;;;;;;;;;;24.58;100.00;100220.31;10063106;29;20324;-76
2022/08/14 09:05:01;;;;;;;;;;;;;;;24.74;100.00;100220.97;10063018;29;19939;-75
2022/08/14 09:10:06;;;;;;;;;;;;;;;24.84;100.00;100222.00;10062768;29;20007;-74
2022/08/14 09:15:10;;;;;;;;;;;;;;;24.86;100.00;100225.41;10063462;29;19991;-72
2022/08/14 09:20:14;;;;;;;;;;;;;;;24.92;100.00;100215.19;10062450;29;19932;-73
2022/08/14 09:25:29;;;;;;;;;;;;;;;25.08;100.00;100212.28;10062323;29;19928;-73
2022/08/14 09:30:54;;;;;;;;;;;;;;;25.38;100.00;100210.09;10062356;29;19934;-73
2022/08/14 09:36:06;;;;;;;;;;;;;;;25.44;100.00;100208.81;10062402;29;19938;-74
2022/08/14 09:41:23;;;;;;;;;;;;;;;25.64;100.00;100201.06;10062033;29;19932;-74
2022/08/14 09:46:26;;;;;;;;;;;;;;;25.79;100.00;100199.03;10037871;29;19929;-74
2022/08/14 09:51:31;;;;;;;;;;;;;;;25.73;100.00;100195.03;10023063;29;20019;-71
2022/08/14 09:56:46;;;;;;;;;;;;;;;25.69;100.00;100192.72;10022793;29;20335;-71
2022/08/14 10:01:59;;;;;;;;;;;;;;;29.00;86.80;100180.41;10022748;29;19932;-76
2022/08/14 10:07:03;;;;;;;;;;;;;;;29.37;81.35;100171.66;10022503;29;19929;-75
2022/08/14 10:12:08;;;;;;;;;;;;;;;27.37;92.72;100175.81;10022852;29;19929;-74
2022/08/14 10:17:23;;;;;;;;;;;;;;;27.41;92.54;100171.09;10022004;29;20351;-72
2022/08/14 10:22:29;;;;;;;;;;;;;;;26.76;96.88;100168.41;10091033;29;19928;-75
2022/08/14 10:27:58;;;;;;;;;;;;;;;26.79;96.46;100170.81;10098215;29;19990;-75
2022/08/14 10:33:01;;;;;;;;;;;;;;;26.60;97.48;100168.75;10098099;29;19950;-74
2022/08/14 10:38:06;;;;;;;;;;;;;;;26.76;96.85;100169.28;10097691;29;19928;-76
2022/08/14 10:43:21;;;;;;;;;;;;;;;26.89;96.83;100164.63;10099951;29;19936;-74
2022/08/14 10:48:25;;;;;;;;;;;;;;;27.40;94.37;100164.06;10100741;29;19928;-73
2022/08/14 10:53:41;;;;;;;;;;;;;;;27.68;92.17;100148.28;10099846;29;19938;-75
2022/08/14 10:58:45;;;;;;;;;;;;;;;27.93;90.74;100153.31;10100489;29;20248;-74
2022/08/14 11:03:49;;;;;;;;;;;;;;;28.19;89.66;100146.59;10100517;29;19928;-75
2022/08/14 11:08:59;;;;;;;;;;;;;;;28.48;86.82;100140.53;10100437;29;19927;-71
2022/08/14 11:14:06;;;;;;;;;;;;;;;28.84;85.10;100131.97;10100812;29;19928;-74
2022/08/14 11:19:11;;;;;;;;;;;;;;;29.29;85.40;100130.53;10100293;29;20315;-76
2022/08/14 11:24:17;;;;;;;;;;;;;;;29.57;83.01;100123.50;10100213;29;19928;-75
2022/08/14 11:29:43;;;;;;;;;;;;;;;29.89;81.25;100108.84;10100024;29;19935;-77
2022/08/14 11:34:46;;;;;;;;;;;;;;;30.39;79.88;100123.66;10100071;29;20009;-78
2022/08/14 11:39:49;;;;;;;;;;;;;;;30.70;77.12;100120.72;10100024;29;20341;-74
2022/08/14 11:44:56;;;;;;;;;;;;;;;30.55;74.74;100113.16;10095566;29;20281;-79
2022/08/14 11:50:11;;;;;;;;;;;;;;;30.50;76.98;100114.59;10099982;29;19936;-78
2022/08/14 11:55:15;;;;;;;;;;;;;;;30.26;78.18;100116.94;10099513;29;19935;-77
2022/08/14 12:00:20;;;;;;;;;;;;;;;29.86;79.09;100119.84;10099341;29;19931;-76
2022/08/14 12:05:34;;;;;;;;;;;;;;;29.73;79.74;100115.78;10100875;29;19929;-76
2022/08/14 12:10:38;;;;;;;;;;;;;;;29.25;80.71;100105.06;10106557;29;19957;-77
2022/08/14 12:15:48;;;;;;;;;;;;;;;29.66;79.37;100096.75;10106475;29;19928;-79
2022/08/14 12:20:53;;;;;;;;;;;;;;;30.07;77.35;100091.06;10105292;29;19938;-77
2022/08/14 12:26:03;;;;;;;;;;;;;;;30.38;76.01;100095.19;10106093;29;19928;-77
2022/08/14 12:31:27;;;;;;;;;;;;;;;30.55;75.27;100104.28;9749653;29;10000462;-77
2022/08/14 12:36:46;;;;;;;;;;;;;;;30.62;75.15;100094.66;10102356;29;20365;-79
2022/08/14 12:41:51;;;;;;;;;;;;;;;30.81;74.58;100101.75;10102575;29;19959;-77
2022/08/14 12:47:04;;;;;;;;;;;;;;;31.04;73.39;100090.47;10104332;29;19966;-77
2022/08/14 12:52:08;;;;;;;;;;;;;;;31.12;71.95;100078.97;10104013;29;20318;-76
2022/08/14 12:57:19;;;;;;;;;;;;;;;31.19;70.32;100067.50;10097826;29;19932;-76
2022/08/14 13:02:25;;;;;;;;;;;;;;;31.15;68.75;100057.22;10062960;29;19928;-75
2022/08/14 13:07:28;;;;;;;;;;;;;;;31.16;70.34;100058.91;10062968;29;20011;-77
2022/08/14 13:12:36;;;;;;;;;;;;;;;31.37;69.66;100040.69;10063165;29;20023;-76
2022/08/14 13:18:03;;;;;;;;;;;;;;;32.99;63.06;100017.19;10061673;29;19939;-74
2022/08/14 13:23:08;;;;;;;;;;;;;;;33.59;59.64;100005.09;10062279;29;20677;-77
2022/08/14 13:28:12;;;;;;;;;;;;;;;32.88;62.59;100012.09;10059298;29;19928;-80
2022/08/14 13:33:34;;;;;;;;;;;;;;;31.67;67.36;100014.22;10022428;29;19936;-79
2022/08/14 13:38:38;;;;;;;;;;;;;;;31.39;66.89;100007.31;10023703;29;19933;-76
2022/08/14 13:43:42;;;;;;;;;;;;;;;30.94;68.27;100009.28;10023510;29;19928;-77
2022/08/14 13:49:03;;;;;;;;;;;;;;;31.02;69.42;100016.53;10023294;29;19932;-76
2022/08/14 13:54:07;;;;;;;;;;;;;;;31.04;69.95;100010.03;10023006;29;19939;-79
2022/08/14 13:59:13;;;;;;;;;;;;;;;30.46;71.21;100012.22;10021762;29;20312;-79
2022/08/14 14:04:25;;;;;;;;;;;;;;;30.00;73.68;100014.13;10022608;29;20506;-80
2022/08/14 14:09:28;;;;;;;;;;;;;;;29.62;75.48;100019.56;10022640;29;20355;-79
2022/08/14 14:14:52;;;;;;;;;;;;;;;29.21;76.78;100004.72;10022783;29;20011;-77
2022/08/14 14:19:58;;;;;;;;;;;;;;;29.44;75.45;99998.09;10021469;29;19933;-81
2022/08/14 14:25:01;;;;;;;;;;;;;;;29.48;76.91;99989.59;10022021;29;19928;-79
2022/08/14 14:30:05;;;;;;;;;;;;;;;29.61;75.74;99993.81;10021515;29;20431;-79
2022/08/14 14:35:30;;;;;;;;;;;;;;;29.69;75.87;99986.78;10027816;29;20392;-79
2022/08/14 14:40:41;;;;;;;;;;;;;;;29.73;76.44;99984.66;10059648;29;19928;-82
2022/08/14 14:45:58;;;;;;;;;;;;;;;29.38;77.81;99991.47;10059497;29;19928;-79
2022/08/14 14:51:03;;;;;;;;;;;;;;;29.44;76.66;99998.09;10059296;29;19991;-76
2022/08/14 14:56:07;;;;;;;;;;;;;;;29.43;76.85;99994.56;10060112;29;19960;-80
2022/08/14 15:01:32;;;;;;;;;;;;;;;29.33;77.71;99998.22;10058665;29;19960;-78
2022/08/14 15:06:37;;;;;;;;;;;;;;;29.20;77.22;100009.22;10020799;29;19960;-77
2022/08/14 15:11:49;;;;;;;;;;;;;;;28.96;77.98;99998.06;10020752;29;19932;-77
2022/08/14 15:16:52;;;;;;;;;;;;;;;28.86;78.91;100005.25;10020531;29;20369;-76
2022/08/14 15:22:02;;;;;;;;;;;;;;;28.59;80.81;100007.75;10020467;29;20024;-75
2022/08/14 15:27:06;;;;;;;;;;;;;;;28.52;81.50;100019.97;10020344;29;19928;-77
2022/08/14 15:32:10;;;;;;;;;;;;;;;28.44;82.06;100011.75;10052487;29;19987;-75
2022/08/14 15:37:14;;;;;;;;;;;;;;;28.38;83.50;100007.81;10058464;29;19928;-76
2022/08/14 15:42:19;;;;;;;;;;;;;;;28.36;83.32;100017.78;10062790;29;20023;-75
2022/08/14 15:47:22;;;;;;;;;;;;;;;28.27;85.14;100023.09;10065805;29;20306;-76
2022/08/14 15:52:33;;;;;;;;;;;;;;;28.16;85.42;100008.00;10065962;29;19928;-76
2022/08/14 15:57:39;;;;;;;;;;;;;;;28.07;85.40;100018.66;10064630;29;20113;-78
2022/08/14 16:03:03;;;;;;;;;;;;;;;27.90;86.67;100020.13;10065067;29;20433;-76
2022/08/14 16:08:12;;;;;;;;;;;;;;;27.81;86.88;100028.06;10065864;29;19928;-75
2022/08/14 16:13:36;;;;;;;;;;;;;;;27.68;86.55;100014.91;10064969;29;20422;-76
2022/08/14 16:18:45;;;;;;;;;;;;;;;27.60;87.03;100016.56;10064551;29;19928;-76
2022/08/14 16:23:51;;;;;;;;;;;;;;;27.53;86.65;100015.38;10064340;29;19954;-78
2022/08/14 16:28:57;;;;;;;;;;;;;;;27.42;86.52;100013.66;10064194;29;19928;-77
2022/08/14 16:34:00;;;;;;;;;;;;;;;27.32;86.77;100019.91;10064217;29;19932;-74
2022/08/14 16:39:25;;;;;;;;;;;;;;;27.17;90.32;100011.31;10064210;29;19956;-74
2022/08/14 16:44:36;;;;;;;;;;;;;;;27.11;90.51;100003.88;10063606;29;20584;-76
2022/08/14 16:49:43;;;;;;;;;;;;;;;27.04;90.97;99986.69;10063418;29;19940;-76
2022/08/14 16:55:09;;;;;;;;;;;;;;;26.94;92.25;99975.94;10063042;29;20430;-74
2022/08/14 17:00:24;;;;;;;;;;;;;;;26.84;93.59;99977.69;10065884;29;20026;-71
2022/08/14 17:05:33;;;;;;;;;;;;;;;26.68;93.64;99974.59;10063986;29;19992;-69
2022/08/14 17:10:57;;;;;;;;;;;;;;;26.56;94.10;99982.72;10062987;29;19965;-68
2022/08/14 17:16:05;;;;;;;;;;;;;;;26.49;94.54;99986.88;10062435;29;19932;-69
2022/08/14 17:21:16;;;;;;;;;;;;;;;26.41;95.14;99998.13;10062456;29;20480;-67
2022/08/14 17:26:33;;;;;;;;;;;;;;;26.37;95.48;100009.16;10062317;29;19928;-69
2022/08/14 17:31:38;;;;;;;;;;;;;;;26.27;95.94;100011.69;10062163;29;19928;-68
2022/08/14 17:37:01;;;;;;;;;;;;;;;26.20;97.12;100015.81;10061974;29;19932;-72
2022/08/14 17:42:04;;;;;;;;;;;;;;;26.14;98.60;100005.66;10061912;29;19928;-70
2022/08/14 17:47:16;;;;;;;;;;;;;;;26.06;99.64;100008.94;10061318;29;19928;-71
2022/08/14 17:52:23;;;;;;;;;;;;;;;25.97;100.00;100027.41;10061160;29;20323;-67
2022/08/14 17:57:38;;;;;;;;;;;;;;;25.88;100.00;100028.13;10079810;29;20410;-70
2022/08/14 18:02:44;;;;;;;;;;;;;;;25.78;100.00;100021.84;10098974;29;19939;-67
2022/08/14 18:07:53;;;;;;;;;;;;;;;25.70;100.00;100024.22;10099201;29;19932;-72
2022/08/14 18:13:16;;;;;;;;;;;;;;;25.59;100.00;100056.97;10098997;29;20015;-67
2022/08/14 18:18:43;;;;;;;;;;;;;;;25.56;100.00;100059.03;10098635;29;19928;-68
2022/08/14 18:23:47;;;;;;;;;;;;;;;25.52;99.77;100053.09;10098611;29;20003;-68
2022/08/14 18:28:54;;;;;;;;;;;;;;;25.26;98.29;100080.75;10090796;29;19928;-71
2022/08/14 18:34:08;;;;;;;;;;;;;;;24.38;100.00;100085.50;10060406;29;19932;-70
2022/08/14 18:39:24;;;;;;;;;;;;;;;23.70;100.00;100039.91;10059792;29;19938;-71
2022/08/14 18:44:48;;;;;;;;;;;;;;;23.39;100.00;100022.63;10059527;29;19928;-68
2022/08/14 18:50:08;;;;;;;;;;;;;;;23.28;100.00;100032.25;10036891;29;19928;-68
2022/08/14 18:55:49;;;;;;;;;;;;;;;23.23;100.00;100037.81;10059236;29;19932;-71
2022/08/14 19:00:58;;;;;;;;;;;;;;;23.17;100.00;100037.38;10059183;29;20280;-69
2022/08/14 19:06:03;;;;;;;;;;;;;;;23.23;100.00;100026.38;10059393;29;20355;-71
2022/08/14 19:11:15;;;;;;;;;;;;;;;23.22;100.00;100022.03;10059169;29;20261;-68
2022/08/14 19:16:21;;;;;;;;;;;;;;;23.18;100.00;100015.22;10073227;29;20048;-70
2022/08/14 19:21:30;;;;;;;;;;;;;;;23.13;100.00;100012.03;10058642;29;19934;-70
2022/08/14 19:26:33;;;;;;;;;;;;;;;23.13;100.00;100006.75;10058658;29;20366;-69
2022/08/14 19:31:54;;;;;;;;;;;;;;;23.18;100.00;100012.56;10028487;29;19928;-71
2022/08/14 19:37:02;;;;;;;;;;;;;;;23.16;100.00;100009.22;10020292;29;19960;-70
2022/08/14 19:42:14;;;;;;;;;;;;;;;23.15;100.00;100005.69;10020046;29;20011;-70
2022/08/14 19:47:33;;;;;;;;;;;;;;;23.17;100.00;100019.69;10019909;29;19936;-72
2022/08/14 19:53:04;;;;;;;;;;;;;;;23.13;100.00;100014.69;10020133;29;19997;-72
2022/08/14 19:58:13;;;;;;;;;;;;;;;23.09;100.00;100011.38;10019952;29;19933;-70
2022/08/14 20:03:16;;;;;;;;;;;;;;;23.09;100.00;100013.22;10020144;29;20016;-72
2022/08/14 20:08:27;;;;;;;;;;;;;;;23.07;100.00;100004.53;10019726;29;19932;-70
2022/08/14 20:13:56;;;;;;;;;;;;;;;23.00;100.00;99990.84;10019612;29;19928;-70
2022/08/14 20:19:08;;;;;;;;;;;;;;;22.95;100.00;99982.38;10019442;29;19984;-73
2022/08/14 20:24:19;;;;;;;;;;;;;;;22.93;100.00;99978.97;10019404;29;19929;-69
2022/08/14 20:29:33;;;;;;;;;;;;;;;22.84;100.00;99979.56;10037475;29;19928;-71
2022/08/14 20:34:43;;;;;;;;;;;;;;;22.88;100.00;99970.50;10064266;29;19932;-68
2022/08/14 20:39:54;;;;;;;;;;;;;;;22.80;100.00;99981.56;10063835;29;19935;-72
2022/08/14 20:50:22;;;;;;;;;;;;;;;22.62;100.00;99981.94;10063635;29;19928;-68
2022/08/14 20:55:36;;;;;;;;;;;;;;;22.52;100.00;99999.34;10063659;29;19950;-68
2022/08/14 21:00:47;;;;;;;;;;;;;;;22.57;100.00;100007.84;10063233;29;19964;-68
2022/08/14 21:05:56;;;;;;;;;;;;;;;22.63;100.00;100005.66;10063160;29;19938;-71
2022/08/14 21:11:02;;;;;;;;;;;;;;;22.62;100.00;100006.56;10063193;29;19928;-70
2022/08/14 21:16:06;;;;;;;;;;;;;;;22.59;100.00;100021.84;10062676;29;19988;-69
2022/08/14 21:21:31;;;;;;;;;;;;;;;22.54;100.00;100016.81;10062416;29;19928;-70
2022/08/14 21:26:44;;;;;;;;;;;;;;;22.45;100.00;100035.06;10062923;29;20023;-67
2022/08/14 21:32:06;;;;;;;;;;;;;;;22.28;100.00;100038.75;10030369;29;19936;-68
2022/08/14 21:37:24;;;;;;;;;;;;;;;22.34;100.00;100022.50;10024292;29;19932;-67
2022/08/14 21:42:31;;;;;;;;;;;;;;;22.40;100.00;100018.63;10023365;29;20067;-68
2022/08/14 21:47:37;;;;;;;;;;;;;;;22.37;100.00;100013.53;10023000;29;20332;-71
2022/08/14 21:52:46;;;;;;;;;;;;;;;22.34;100.00;100005.78;10023538;29;20023;-67
2022/08/14 21:58:02;;;;;;;;;;;;;;;22.39;100.00;99995.75;10023448;29;19989;-70
2022/08/14 22:03:25;;;;;;;;;;;;;;;22.24;100.00;99989.69;10022834;29;19939;-68
2022/08/14 22:08:38;;;;;;;;;;;;;;;22.08;100.00;99994.22;10022572;29;20041;-70
2022/08/14 22:13:47;;;;;;;;;;;;;;;22.06;100.00;100001.41;10022236;29;20339;-68
2022/08/14 22:18:51;;;;;;;;;;;;;;;22.09;100.00;99992.44;10022071;29;19992;-71
2022/08/14 22:24:00;;;;;;;;;;;;;;;22.26;100.00;99981.63;10022358;29;19932;-69
2022/08/14 22:29:13;;;;;;;;;;;;;;;22.18;100.00;99976.81;9692731;29;10000186;-67
2022/08/14 22:34:16;;;;;;;;;;;;;;;22.21;100.00;99968.69;10059858;29;20378;-69
2022/08/14 22:39:24;;;;;;;;;;;;;;;22.16;100.00;99975.25;10059399;29;19950;-65
2022/08/14 22:44:47;;;;;;;;;;;;;;;22.13;100.00;99976.28;10059378;29;19928;-69
2022/08/14 22:49:50;;;;;;;;;;;;;;;22.11;100.00;99975.50;10059316;29;19936;-65
2022/08/14 22:55:14;;;;;;;;;;;;;;;22.19;100.00;99975.91;10060715;29;19942;-71
2022/08/14 23:00:22;;;;;;;;;;;;;;;22.23;100.00;99980.03;10062789;29;20296;-70
2022/08/14 23:05:33;;;;;;;;;;;;;;;22.24;100.00;99987.03;10062440;29;19961;-68
2022/08/14 23:10:43;;;;;;;;;;;;;;;22.26;100.00;99990.41;10062204;29;19928;-69
2022/08/14 23:15:48;;;;;;;;;;;;;;;22.15;100.00;99986.75;10062326;29;19938;-69
2022/08/14 23:20:52;;;;;;;;;;;;;;;22.20;100.00;99984.66;10061925;29;20419;-71
2022/08/14 23:25:56;;;;;;;;;;;;;;;22.16;100.00;99986.66;10062117;29;19938;-70
2022/08/14 23:31:05;;;;;;;;;;;;;;;22.16;100.00;99989.28;10061918;29;19939;-72
2022/08/14 23:36:11;;;;;;;;;;;;;;;22.17;100.00;99988.38;10061646;29;20062;-72
2022/08/14 23:41:36;;;;;;;;;;;;;;;22.17;100.00;99983.06;10061435;29;20263;-71
2022/08/14 23:46:56;;;;;;;;;;;;;;;22.13;100.00;99986.00;10061600;29;19929;-70
2022/08/14 23:52:07;;;;;;;;;;;;;;;22.12;100.00;99973.72;10061458;29;19958;-72
2022/08/14 23:57:31;;;;;;;;;;;;;;;22.13;100.00;99968.34;10061342;29;19951;-72
